createdAt,value
2023-03-28T00:01:27.986Z,21.88
2023-03-28T00:03:33.067Z,21.82
2023-03-28T00:05:38.460Z,21.67
2023-03-28T00:07:43.684Z,21.89
2023-03-28T00:09:48.701Z,21.75
2023-03-28T00:11:53.825Z,21.7
2023-03-28T00:13:58.990Z,21.54
2023-03-28T00:16:04.794Z,21.65
2023-03-28T00:18:09.787Z,21.6
2023-03-28T00:20:14.784Z,21.5
2023-03-28T00:22:19.787Z,21.56
2023-03-28T00:24:24.749Z,21.49
2023-03-28T00:26:29.800Z,21.46
2023-03-28T00:28:34.794Z,21.58
2023-03-28T00:30:39.845Z,21.51
2023-03-28T00:32:45.038Z,21.48
2023-03-28T00:34:50.058Z,21.42
2023-03-28T00:36:55.065Z,21.52
2023-03-28T00:39:00.630Z,21.46
2023-03-28T00:41:05.765Z,21.84
2023-03-28T00:43:10.768Z,21.67
2023-03-28T00:45:15.747Z,21.44
2023-03-28T00:47:20.765Z,21.66
2023-03-28T00:49:25.783Z,21.49
2023-03-28T00:51:30.991Z,21.61
2023-03-28T00:53:36.104Z,21.41
2023-03-28T00:55:41.062Z,21.44
2023-03-28T00:57:46.046Z,21.5
2023-03-28T00:59:51.258Z,21.61
2023-03-28T01:01:56.443Z,21.5
2023-03-28T01:04:01.483Z,21.37
2023-03-28T01:06:06.511Z,21.49
2023-03-28T01:08:11.503Z,21.46
2023-03-28T01:10:16.466Z,21.45
2023-03-28T01:12:21.552Z,21.51
2023-03-28T01:14:26.671Z,21.46
2023-03-28T01:16:32.135Z,21.38
2023-03-28T01:18:37.271Z,21.53
2023-03-28T01:20:42.194Z,21.6
2023-03-28T01:22:59.655Z,21.59
2023-03-28T01:25:04.729Z,21.64
2023-03-28T01:27:09.825Z,21.79
2023-03-28T01:29:14.819Z,21.68
2023-03-28T01:31:19.888Z,21.74
2023-03-28T01:33:24.929Z,21.67
2023-03-28T01:35:30.072Z,21.6
2023-03-28T01:37:35.137Z,21.63
2023-03-28T01:39:40.101Z,21.67
2023-03-28T01:41:45.064Z,21.78
2023-03-28T01:43:50.050Z,21.78
2023-03-28T01:45:55.204Z,21.92
2023-03-28T01:48:00.306Z,21.8
2023-03-28T01:50:05.430Z,21.83
2023-03-28T01:52:10.405Z,21.96
2023-03-28T01:54:15.518Z,21.8
2023-03-28T01:56:20.571Z,21.91
2023-03-28T01:58:25.588Z,21.89
2023-03-28T02:00:30.670Z,22.3
2023-03-28T02:02:35.931Z,22.23
2023-03-28T02:04:41.003Z,22.21
2023-03-28T02:06:46.031Z,22.49
2023-03-28T02:08:51.023Z,22.5
2023-03-28T02:10:56.188Z,22.45
2023-03-28T02:13:01.356Z,22.91
2023-03-28T02:15:06.342Z,22.92
2023-03-28T02:17:11.384Z,22.75
2023-03-28T02:19:16.385Z,22.74
2023-03-28T02:21:21.453Z,22.79
2023-03-28T02:23:26.444Z,22.79
2023-03-28T02:25:31.455Z,22.86
2023-03-28T02:27:36.477Z,22.67
2023-03-28T02:29:41.534Z,23.13
2023-03-28T02:31:46.681Z,23.26
2023-03-28T02:33:51.649Z,23
2023-03-28T02:35:56.865Z,23.03
2023-03-28T02:38:01.893Z,22.84
2023-03-28T02:40:06.840Z,22.97
2023-03-28T02:42:11.836Z,22.82
2023-03-28T02:49:49.419Z,22.96
2023-03-28T02:51:55.148Z,22.77
2023-03-28T02:54:00.168Z,22.67
2023-03-28T02:56:05.296Z,22.78
2023-03-28T02:58:10.434Z,22.66
2023-03-28T03:00:15.558Z,22.88
2023-03-28T03:02:20.513Z,22.66
2023-03-28T03:04:25.509Z,22.75
2023-03-28T03:06:30.516Z,22.49
2023-03-28T03:08:35.578Z,22.57
2023-03-28T03:10:40.581Z,22.47
2023-03-28T03:12:45.566Z,22.55
2023-03-28T03:14:50.571Z,22.63
2023-03-28T03:16:55.554Z,22.65
2023-03-28T03:19:00.559Z,22.9
2023-03-28T03:21:05.623Z,22.77
2023-03-28T03:23:10.701Z,23
2023-03-28T03:25:17.172Z,22.8
2023-03-28T03:27:22.182Z,22.57
2023-03-28T03:29:41.766Z,22.53
2023-03-28T03:31:46.911Z,22.7
2023-03-28T03:33:51.925Z,22.57
2023-03-28T03:35:57.126Z,22.51
2023-03-28T03:38:02.258Z,22.65
2023-03-28T03:40:07.270Z,22.66
2023-03-28T03:42:12.306Z,22.73
2023-03-28T03:44:17.271Z,22.21
2023-03-28T03:46:22.609Z,22.23
2023-03-28T03:48:27.670Z,22.21
2023-03-28T03:50:32.645Z,23.08
2023-03-28T03:52:37.641Z,22.33
2023-03-28T03:54:42.630Z,22.04
2023-03-28T03:56:47.820Z,22.08
2023-03-28T03:58:52.848Z,21.83
2023-03-28T04:00:57.862Z,21.87
2023-03-28T04:03:02.949Z,22.06
2023-03-28T04:05:08.037Z,22.3
2023-03-28T04:07:13.140Z,21.97
2023-03-28T04:09:18.127Z,21.95
2023-03-28T04:11:23.120Z,21.92
2023-03-28T04:13:28.143Z,23.02
2023-03-28T04:15:33.162Z,21.59
2023-03-28T04:17:38.543Z,21.65
2023-03-28T04:19:43.569Z,21.68
2023-03-28T04:21:48.632Z,21.5
2023-03-28T04:23:53.730Z,21.93
2023-03-28T04:25:59.081Z,21.78
2023-03-28T04:28:04.485Z,22.5
2023-03-28T04:30:09.643Z,22.03
2023-03-28T04:32:14.727Z,22.41
2023-03-28T04:34:19.774Z,23.3
2023-03-28T04:36:24.906Z,22.57
2023-03-28T04:38:30.117Z,23.01
2023-03-28T04:40:35.208Z,22.55
2023-03-28T04:42:40.321Z,22.6
2023-03-28T04:44:45.387Z,22.36
2023-03-28T04:46:50.454Z,22.09
2023-03-28T04:48:59.386Z,21.74
2023-03-28T04:51:04.562Z,21.75
2023-03-28T04:53:09.621Z,21.75
2023-03-28T04:55:14.666Z,21.8
2023-03-28T04:57:20.155Z,22.23
2023-03-28T04:59:25.258Z,22.09
2023-03-28T05:01:30.468Z,22.12
2023-03-28T05:03:35.956Z,22.01
2023-03-28T05:05:41.067Z,21.71
2023-03-28T05:07:46.228Z,21.67
2023-03-28T05:09:51.329Z,22.36
2023-03-28T05:11:56.301Z,22.18
2023-03-28T05:14:01.422Z,21.75
2023-03-28T05:16:06.707Z,21.76
2023-03-28T05:18:11.906Z,21.88
2023-03-28T05:20:17.049Z,21.52
2023-03-28T05:22:22.083Z,21.37
2023-03-28T05:24:27.179Z,21.95
2023-03-28T05:26:32.217Z,21.6
2023-03-28T05:28:37.343Z,21.55
2023-03-28T05:30:42.439Z,21.5
2023-03-28T05:32:47.648Z,21.73
2023-03-28T05:34:52.843Z,21.56
2023-03-28T05:36:57.941Z,21.73
2023-03-28T05:39:03.111Z,21.68
2023-03-28T05:41:08.155Z,21.87
2023-03-28T05:43:13.208Z,22.42
2023-03-28T05:45:18.334Z,21.77
2023-03-28T05:47:23.424Z,21.85
2023-03-28T05:49:28.547Z,22.15
2023-03-28T05:51:33.667Z,22.11
2023-03-28T05:53:38.819Z,22.16
2023-03-28T05:55:43.907Z,22.87
2023-03-28T05:57:48.974Z,22.09
2023-03-28T05:59:54.047Z,22.21
2023-03-28T06:01:59.178Z,22.12
2023-03-28T06:04:04.438Z,22.18
2023-03-28T06:06:09.602Z,22.28
2023-03-28T06:08:14.769Z,22.37
2023-03-28T06:10:19.877Z,23.09
2023-03-28T06:12:24.953Z,22.65
2023-03-28T06:14:29.969Z,22.28
2023-03-28T06:16:35.262Z,22.3
2023-03-28T06:18:40.306Z,21.96
2023-03-28T06:20:45.367Z,22.19
2023-03-28T06:22:50.449Z,21.63
2023-03-28T06:24:55.682Z,21.39
2023-03-28T06:27:00.824Z,21.57
2023-03-28T06:29:05.895Z,21.08
2023-03-28T06:31:11.086Z,21.35
2023-03-28T06:33:16.237Z,21.08
2023-03-28T06:35:21.265Z,21.14
2023-03-28T06:37:26.329Z,21.16
2023-03-28T06:39:31.400Z,21.1
2023-03-28T06:41:36.552Z,21.05
2023-03-28T06:43:41.789Z,21.03
2023-03-28T06:45:46.866Z,21.09
2023-03-28T06:47:52.101Z,21.04
2023-03-28T06:49:57.198Z,21
2023-03-28T06:52:02.312Z,21.23
2023-03-28T06:54:07.398Z,21.04
2023-03-28T06:56:12.574Z,21.1
2023-03-28T06:58:17.642Z,20.97
2023-03-28T07:00:22.736Z,21.28
2023-03-28T07:02:28.097Z,21.35
2023-03-28T07:04:33.293Z,21.2
2023-03-28T07:06:38.315Z,21.02
2023-03-28T07:08:43.392Z,21.39
2023-03-28T07:10:48.551Z,21.71
2023-03-28T07:12:53.825Z,21.02
2023-03-28T07:14:58.883Z,21.29
2023-03-28T07:17:04.346Z,21.41
2023-03-28T07:19:09.454Z,21.98
2023-03-28T07:21:14.544Z,21.47
2023-03-28T07:23:19.680Z,21.18
2023-03-28T07:25:24.687Z,22.22
2023-03-28T07:27:29.847Z,21.9
2023-03-28T07:29:34.916Z,21.42
2023-03-28T07:31:40.179Z,21.81
2023-03-28T07:33:45.531Z,22.73
2023-03-28T07:35:50.766Z,21.98
2023-03-28T07:37:55.865Z,22.66
2023-03-28T07:40:00.885Z,22.1
2023-03-28T07:42:06.023Z,21.33
2023-03-28T07:44:11.111Z,22.95
2023-03-28T07:46:16.539Z,22.47
2023-03-28T07:48:21.802Z,21.85
2023-03-28T07:50:27.553Z,22.09
2023-03-28T07:52:32.618Z,22.82
2023-03-28T07:54:37.732Z,22.5
2023-03-28T07:56:43.655Z,21.97
2023-03-28T07:58:48.702Z,21.96
2023-03-28T08:00:53.808Z,22.93
2023-03-28T08:02:59.122Z,23.03
2023-03-28T08:05:04.597Z,22.41
2023-03-28T08:07:09.683Z,22.13
2023-03-28T08:09:14.821Z,21.89
2023-03-28T08:11:19.831Z,21.41
2023-03-28T08:13:24.977Z,21.53
2023-03-28T08:15:30.183Z,22.22
2023-03-28T08:17:35.410Z,21.62
2023-03-28T08:19:40.660Z,22.2
2023-03-28T08:21:45.790Z,20.96
2023-03-28T08:23:50.848Z,20.91
2023-03-28T08:25:55.922Z,21.06
2023-03-28T08:28:01.051Z,20.69
2023-03-28T08:30:06.181Z,20.62
2023-03-28T08:32:11.246Z,21.33
2023-03-28T08:34:16.319Z,20.58
2023-03-28T08:36:21.576Z,20.33
2023-03-28T08:38:26.626Z,20.49
2023-03-28T08:40:31.735Z,20.55
2023-03-28T08:42:36.778Z,22.22
2023-03-28T08:44:41.968Z,20.36
2023-03-28T08:46:47.181Z,22.92
2023-03-28T08:48:52.331Z,24.07
2023-03-28T08:50:57.453Z,24.12
2023-03-28T08:53:02.535Z,24.18
2023-03-28T08:55:07.674Z,24.7
2023-03-28T08:57:13.031Z,24.67
2023-03-28T08:59:18.140Z,25.29
2023-03-28T09:01:23.720Z,25.79
2023-03-28T09:03:29.361Z,26.61
2023-03-28T09:05:34.548Z,27
2023-03-28T09:07:39.609Z,27.24
2023-03-28T09:09:44.656Z,27.33
2023-03-28T09:11:49.633Z,27.24
2023-03-28T09:13:54.749Z,26.25
2023-03-28T09:16:00.117Z,25.51
2023-03-28T09:18:05.596Z,26.98
2023-03-28T09:20:10.996Z,27.37
2023-03-28T09:22:18.404Z,27.58
2023-03-28T09:24:23.445Z,27.84
2023-03-28T09:26:28.501Z,27.89
2023-03-28T09:28:33.522Z,28.16
2023-03-28T09:30:38.597Z,28.46
2023-03-28T09:32:44.000Z,28.44
2023-03-28T09:34:49.147Z,28.68
2023-03-28T09:36:56.816Z,29.03
2023-03-28T09:39:01.889Z,28.89
2023-03-28T09:41:07.062Z,28.93
2023-03-28T09:43:12.171Z,28.76
2023-03-28T09:45:17.199Z,28.79
2023-03-28T09:47:22.530Z,28.74
2023-03-28T09:49:27.739Z,28.71
2023-03-28T09:51:32.910Z,28.73
2023-03-28T09:53:38.035Z,28.65
2023-03-28T09:55:54.720Z,28.72
2023-03-28T09:58:06.818Z,28.78
2023-03-28T10:00:11.956Z,28.66
2023-03-28T10:02:16.951Z,28.72
2023-03-28T10:04:22.113Z,28.59
2023-03-28T10:06:27.148Z,28.57
2023-03-28T10:08:32.233Z,28.5
2023-03-28T10:10:37.363Z,28.36
2023-03-28T10:12:42.447Z,28.44
2023-03-28T10:14:47.523Z,28.55
2023-03-28T10:16:52.630Z,28.45
2023-03-28T10:18:57.681Z,28.45
2023-03-28T10:21:03.159Z,28.5
2023-03-28T10:23:08.359Z,28.37
2023-03-28T10:25:13.403Z,28.37
2023-03-28T10:27:18.463Z,28.3
2023-03-28T10:29:23.545Z,28.52
2023-03-28T10:31:29.240Z,28.67
2023-03-28T10:33:34.709Z,28.83
2023-03-28T10:35:39.989Z,28.92
2023-03-28T10:37:45.030Z,28.87
2023-03-28T10:39:50.052Z,28.84
2023-03-28T10:41:55.154Z,28.9
2023-03-28T10:44:00.225Z,28.86
2023-03-28T10:46:05.457Z,28.82
2023-03-28T10:48:10.653Z,29.05
2023-03-28T10:50:15.891Z,29.15
2023-03-28T10:52:20.980Z,29.02
2023-03-28T10:54:26.160Z,29.12
2023-03-28T10:56:31.204Z,29.03
2023-03-28T10:58:36.316Z,28.96
2023-03-28T11:00:41.407Z,28.95
2023-03-28T11:02:46.674Z,28.98
2023-03-28T11:04:51.779Z,28.92
2023-03-28T11:06:56.849Z,29.17
2023-03-28T11:09:02.001Z,28.97
2023-03-28T11:11:07.120Z,29.01
2023-03-28T11:13:12.156Z,28.87
2023-03-28T11:15:17.357Z,28.97
2023-03-28T11:17:22.461Z,29.06
2023-03-28T11:19:27.569Z,29.33
2023-03-28T11:21:32.571Z,29.6
2023-03-28T11:23:40.460Z,29.52
2023-03-28T11:25:45.591Z,29.46
2023-03-28T11:27:50.646Z,29.31
2023-03-28T11:29:55.717Z,29.21
2023-03-28T11:32:01.090Z,29.18
2023-03-28T11:34:06.217Z,29.09
2023-03-28T11:36:11.438Z,29.05
2023-03-28T11:38:16.484Z,29.02
2023-03-28T11:40:21.668Z,29.07
2023-03-28T11:42:26.662Z,29.1
2023-03-28T11:44:31.794Z,29.11
2023-03-28T11:46:37.128Z,29.12
2023-03-28T11:48:42.255Z,29.08
2023-03-28T11:50:47.319Z,29.03
2023-03-28T11:52:52.379Z,29.06
2023-03-28T11:54:57.520Z,29.28
2023-03-28T11:57:03.137Z,29.22
2023-03-28T11:59:08.188Z,29.33
2023-03-28T12:01:13.463Z,29.43
2023-03-28T12:03:18.869Z,29.44
2023-03-28T12:05:24.069Z,29.51
2023-03-28T12:07:29.173Z,29.57
2023-03-28T12:09:34.323Z,29.72
2023-03-28T12:11:39.421Z,29.7
2023-03-28T12:14:05.170Z,29.72
2023-03-28T12:16:16.464Z,29.61
2023-03-28T12:18:21.518Z,29.51
2023-03-28T12:20:26.767Z,29.62
2023-03-28T12:22:31.960Z,29.69
2023-03-28T12:24:37.017Z,29.84
2023-03-28T12:26:42.461Z,29.99
2023-03-28T12:28:47.594Z,30.04
2023-03-28T12:30:52.928Z,30.25
2023-03-28T12:32:58.193Z,30.39
2023-03-28T12:35:03.333Z,30.44
2023-03-28T12:37:08.382Z,30.47
2023-03-28T12:39:13.501Z,30.47
2023-03-28T12:41:18.579Z,30.66
2023-03-28T12:43:23.641Z,30.51
2023-03-28T12:45:28.698Z,30.76
2023-03-28T12:47:34.031Z,30.86
2023-03-28T12:49:39.128Z,30.82
2023-03-28T12:51:44.171Z,30.75
2023-03-28T12:53:49.333Z,30.81
2023-03-28T12:55:54.433Z,31
2023-03-28T12:57:59.678Z,30.84
2023-03-28T13:00:04.974Z,30.8
2023-03-28T13:02:10.094Z,30.79
2023-03-28T13:04:15.401Z,30.9
2023-03-28T13:06:20.462Z,30.98
2023-03-28T13:08:26.804Z,30.69
2023-03-28T13:10:31.938Z,30.99
2023-03-28T13:12:36.985Z,30.96
2023-03-28T13:14:42.186Z,30.85
2023-03-28T13:16:47.335Z,31.03
2023-03-28T13:18:52.397Z,30.77
2023-03-28T13:20:57.547Z,30.97
2023-03-28T13:23:02.618Z,31.17
2023-03-28T13:25:07.709Z,31.21
2023-03-28T13:27:13.230Z,31.32
2023-03-28T13:29:18.254Z,31.29
2023-03-28T13:31:23.592Z,30.9
2023-03-28T13:33:28.721Z,30.98
2023-03-28T13:35:33.899Z,31.12
2023-03-28T13:37:39.131Z,31.09
2023-03-28T13:39:44.208Z,30.95
2023-03-28T13:41:49.580Z,31.18
2023-03-28T13:43:58.293Z,31.36
2023-03-28T13:46:04.115Z,31.24
2023-03-28T13:48:16.082Z,31.43
2023-03-28T13:50:21.197Z,31.36
2023-03-28T13:52:26.374Z,30.95
2023-03-28T13:54:31.436Z,31.27
2023-03-28T13:56:36.575Z,31.12
2023-03-28T13:58:41.655Z,31.46
2023-03-28T14:00:46.889Z,31.58
2023-03-28T14:02:52.612Z,31.29
2023-03-28T14:04:57.782Z,31.2
2023-03-28T14:07:02.829Z,31.07
2023-03-28T14:09:07.873Z,31.36
2023-03-28T14:11:12.926Z,31.32
2023-03-28T14:13:18.050Z,29.27
2023-03-28T14:15:23.112Z,28.68
2023-03-28T14:17:28.294Z,28.58
2023-03-28T14:19:33.593Z,28.46
2023-03-28T14:21:38.645Z,28.28
2023-03-28T14:23:43.677Z,28.9
2023-03-28T14:25:48.777Z,29.02
2023-03-28T14:27:53.815Z,29.16
2023-03-28T14:29:58.893Z,28.95
2023-03-28T14:32:04.172Z,29.52
2023-03-28T14:34:09.196Z,29.74
2023-03-28T14:36:14.245Z,29.81
2023-03-28T14:38:19.461Z,29.74
2023-03-28T14:40:25.642Z,29.81
2023-03-28T14:42:30.659Z,30.16
2023-03-28T14:44:35.749Z,30.54
2023-03-28T14:46:41.067Z,31.21
2023-03-28T14:48:46.113Z,31.09
2023-03-28T14:50:54.987Z,31.28
2023-03-28T14:53:00.050Z,31.74
2023-03-28T14:55:05.160Z,31.79
2023-03-28T14:57:10.535Z,31.76
2023-03-28T14:59:15.620Z,32.08
2023-03-28T15:01:20.853Z,31.7
2023-03-28T15:03:26.125Z,31.67
2023-03-28T15:05:31.303Z,31.48
2023-03-28T15:07:36.357Z,27.59
2023-03-28T15:09:41.406Z,26.5
2023-03-28T15:11:46.474Z,25.82
2023-03-28T15:13:51.512Z,24.02
2023-03-28T15:15:56.914Z,23.43
2023-03-28T15:18:02.242Z,22.9
2023-03-28T15:20:07.385Z,23.47
2023-03-28T15:22:12.470Z,23.06
2023-03-28T15:24:17.596Z,23.09
2023-03-28T15:26:22.638Z,24.74
2023-03-28T15:28:27.711Z,26.05
2023-03-28T15:30:32.798Z,26.62
2023-03-28T15:32:38.034Z,26.58
2023-03-28T15:34:43.148Z,26.38
2023-03-28T15:36:48.240Z,26.53
2023-03-28T15:38:53.377Z,26.86
2023-03-28T15:40:58.624Z,27.26
2023-03-28T15:43:03.795Z,27.05
2023-03-28T15:45:08.983Z,27.05
2023-03-28T15:47:14.028Z,27.3
2023-03-28T15:49:19.336Z,27.6
2023-03-28T15:51:24.384Z,28.01
2023-03-28T15:53:29.498Z,28.53
2023-03-28T15:55:34.667Z,28.81
2023-03-28T15:57:39.713Z,29.3
2023-03-28T15:59:44.909Z,28.56
2023-03-28T16:01:50.141Z,29.39
2023-03-28T16:03:55.407Z,29.94
2023-03-28T16:06:15.796Z,30.1
2023-03-28T16:08:25.407Z,30.44
2023-03-28T16:10:30.507Z,29.89
2023-03-28T16:12:35.558Z,29.97
2023-03-28T16:14:40.790Z,30.16
2023-03-28T16:16:46.013Z,30.71
2023-03-28T16:18:51.094Z,30.58
2023-03-28T16:20:56.172Z,29.89
2023-03-28T16:23:01.340Z,30.02
2023-03-28T16:25:06.547Z,29.36
2023-03-28T16:27:11.702Z,28.59
2023-03-28T16:29:17.142Z,28.03
2023-03-28T16:31:22.453Z,28.56
2023-03-28T16:33:27.570Z,29.15
2023-03-28T16:35:32.763Z,29.57
2023-03-28T16:37:37.890Z,28.76
2023-03-28T16:39:42.935Z,28.3
2023-03-28T16:41:48.031Z,27.92
2023-03-28T16:43:53.077Z,27.5
2023-03-28T16:45:58.299Z,28.24
2023-03-28T16:48:03.561Z,28.28
2023-03-28T16:50:08.842Z,28.36
2023-03-28T16:52:14.009Z,28.23
2023-03-28T16:54:19.080Z,27.99
2023-03-28T16:56:24.220Z,27.94
2023-03-28T16:58:31.501Z,28.37
2023-03-28T17:00:36.974Z,27.83
2023-03-28T17:02:42.322Z,27.63
2023-03-28T17:04:47.414Z,27.82
2023-03-28T17:06:52.506Z,27.52
2023-03-28T17:08:57.611Z,28.04
2023-03-28T17:11:02.654Z,27.73
2023-03-28T17:13:07.768Z,27.07
2023-03-28T17:15:12.859Z,28.05
2023-03-28T17:17:18.071Z,27.19
2023-03-28T17:19:23.186Z,26.27
2023-03-28T17:21:28.284Z,25.44
2023-03-28T17:23:33.371Z,25.39
2023-03-28T17:25:56.108Z,26.69
2023-03-28T17:28:01.243Z,27.27
2023-03-28T17:30:06.566Z,27.18
2023-03-28T17:32:11.941Z,27.24
2023-03-28T17:34:17.058Z,26.81
2023-03-28T17:36:24.465Z,26.43
2023-03-28T17:38:29.649Z,25.27
2023-03-28T17:40:35.138Z,24.04
2023-03-28T17:42:40.227Z,24.51
2023-03-28T17:44:45.291Z,24.21
2023-03-28T17:46:50.642Z,24.34
2023-03-28T17:48:55.800Z,24.05
2023-03-28T17:51:00.947Z,24.02
2023-03-28T17:53:06.091Z,23.73
2023-03-28T17:55:11.404Z,23.83
2023-03-28T17:57:16.719Z,23.85
2023-03-28T17:59:21.903Z,23.85
2023-03-28T18:01:27.186Z,23.7
2023-03-28T18:03:33.010Z,22.79
2023-03-28T18:05:38.200Z,20.46
2023-03-28T18:07:43.329Z,20.46
2023-03-28T18:09:48.481Z,19.99
2023-03-28T18:11:53.627Z,19.5
2023-03-28T18:13:58.933Z,19.88
2023-03-28T18:16:05.015Z,19.38
2023-03-28T18:18:10.494Z,19.35
2023-03-28T18:20:15.892Z,19.6
2023-03-28T18:22:21.025Z,19.4
2023-03-28T18:24:26.103Z,19.42
2023-03-28T18:26:31.277Z,19.31
2023-03-28T18:28:36.370Z,18.92
2023-03-28T18:30:41.414Z,18.96
2023-03-28T18:32:46.642Z,19.39
2023-03-28T18:34:51.794Z,18.97
2023-03-28T18:36:56.909Z,18.76
2023-03-28T18:39:02.075Z,18.4
2023-03-28T18:41:07.184Z,19.02
2023-03-28T18:43:12.248Z,19.2
2023-03-28T18:45:17.397Z,19.11
2023-03-28T18:47:22.500Z,19.01
2023-03-28T18:49:27.736Z,18.96
2023-03-28T18:51:32.913Z,19.55
2023-03-28T18:53:38.008Z,19.07
2023-03-28T18:55:43.137Z,18.99
2023-03-28T18:57:48.230Z,18.79
2023-03-28T18:59:53.279Z,18.68
2023-03-28T19:01:58.623Z,18.7
2023-03-28T19:04:04.238Z,20.15
2023-03-28T19:06:09.315Z,20.31
2023-03-28T19:08:14.448Z,21.14
2023-03-28T19:10:19.612Z,21.98
2023-03-28T19:12:24.678Z,22.02
2023-03-28T19:14:29.800Z,22.33
2023-03-28T19:16:35.053Z,22.29
2023-03-28T19:18:40.119Z,22.5
2023-03-28T19:20:45.173Z,22.82
2023-03-28T19:22:50.251Z,22.99
2023-03-28T19:24:55.338Z,23.12
2023-03-28T19:27:05.275Z,23.38
2023-03-28T19:29:10.555Z,23.67
2023-03-28T19:31:15.966Z,23.32
2023-03-28T19:33:21.145Z,23.87
2023-03-28T19:35:26.197Z,24.35
2023-03-28T19:37:31.359Z,24.42
2023-03-28T19:39:36.468Z,24.67
2023-03-28T19:41:41.566Z,24.88
2023-03-28T19:43:46.653Z,24.48
2023-03-28T19:45:51.809Z,23.89
2023-03-28T19:47:57.264Z,23.29
2023-03-28T19:50:02.470Z,23.43
2023-03-28T19:52:07.522Z,23.31
2023-03-28T19:54:12.652Z,23.07
2023-03-28T19:56:17.687Z,23.68
2023-03-28T19:58:22.741Z,23.8
2023-03-28T20:00:27.903Z,23.99
2023-03-28T20:02:33.182Z,24.25
2023-03-28T20:04:38.438Z,24.45
2023-03-28T20:06:43.630Z,24.59
2023-03-28T20:08:48.751Z,24.75
2023-03-28T20:10:53.881Z,24.5
2023-03-28T20:12:58.935Z,24.68
2023-03-28T20:15:04.097Z,25.05
2023-03-28T20:17:09.186Z,24.39
2023-03-28T20:19:14.195Z,24.1
2023-03-28T20:21:19.279Z,22.83
2023-03-28T20:23:24.373Z,22.07
2023-03-28T20:25:29.469Z,21.79
2023-03-28T20:27:34.646Z,21.58
2023-03-28T20:29:39.743Z,21.54
2023-03-28T20:31:45.055Z,21.6
2023-03-28T20:33:50.229Z,21.23
2023-03-28T20:35:55.814Z,21.51
2023-03-28T20:38:01.010Z,21.22
2023-03-28T20:40:06.072Z,20.98
2023-03-28T20:42:11.137Z,20.88
2023-03-28T20:44:16.182Z,20.77
2023-03-28T20:46:21.984Z,20.64
2023-03-28T20:48:27.247Z,20.13
2023-03-28T20:50:32.267Z,20.65
2023-03-28T20:52:37.351Z,20.67
2023-03-28T20:54:42.464Z,20.56
2023-03-28T20:56:47.674Z,20.45
2023-03-28T20:58:52.800Z,20.16
2023-03-28T21:00:58.066Z,20.49
2023-03-28T21:03:03.563Z,20.45
2023-03-28T21:05:08.798Z,20.41
2023-03-28T21:07:13.868Z,20.56
2023-03-28T21:09:19.327Z,20.76
2023-03-28T21:11:24.376Z,20.28
2023-03-28T21:13:29.477Z,20.25
2023-03-28T21:15:34.531Z,20.23
2023-03-28T21:17:39.763Z,20.19
2023-03-28T21:19:44.850Z,20.7
2023-03-28T21:21:49.893Z,21.26
2023-03-28T21:23:54.918Z,21.4
2023-03-28T21:26:00.032Z,21.95
2023-03-28T21:28:05.162Z,22.15
2023-03-28T21:30:10.487Z,22.41
2023-03-28T21:32:15.985Z,22.64
2023-03-28T21:34:21.030Z,22.83
2023-03-28T21:36:26.089Z,22.8
2023-03-28T21:38:31.153Z,22.72
2023-03-28T21:40:36.174Z,23.12
2023-03-28T21:42:41.411Z,23
2023-03-28T21:44:46.483Z,24.01
2023-03-28T21:46:51.577Z,23.62
2023-03-28T21:48:56.761Z,24.02
2023-03-28T21:51:02.967Z,24.26
2023-03-28T21:53:08.447Z,24.68
2023-03-28T21:55:13.548Z,24.88
2023-03-28T21:57:18.841Z,25.07
2023-03-28T21:59:23.965Z,25.4
2023-03-28T22:01:29.356Z,25.65
2023-03-28T22:03:34.710Z,25.35
2023-03-28T22:05:43.083Z,25.46
2023-03-28T22:07:48.266Z,25.55
2023-03-28T22:09:53.487Z,25.62
2023-03-28T22:11:58.546Z,25.96
2023-03-28T22:14:04.012Z,26.08
2023-03-28T22:16:09.457Z,26.19
2023-03-28T22:18:14.635Z,26.28
2023-03-28T22:20:19.656Z,26.46
2023-03-28T22:22:24.720Z,26.45
2023-03-28T22:24:29.816Z,26.3
2023-03-28T22:26:34.903Z,26.51
2023-03-28T22:28:39.927Z,26.48
2023-03-28T22:30:45.006Z,26.6
2023-03-28T22:32:50.230Z,26.86
2023-03-28T22:34:55.382Z,26.84
2023-03-28T22:37:00.519Z,26.85
2023-03-28T22:39:05.653Z,26.8
2023-03-28T22:41:10.922Z,26.73
2023-03-28T22:43:16.141Z,26.9
2023-03-28T22:45:21.371Z,27.26
2023-03-28T22:47:26.454Z,27.16
2023-03-28T22:49:31.508Z,27.15
2023-03-28T22:51:36.614Z,27.09
2023-03-28T22:53:41.908Z,27.42
2023-03-28T22:55:47.020Z,27.49
2023-03-28T22:57:52.095Z,27.56
2023-03-28T22:59:57.132Z,27.51
2023-03-28T23:02:02.363Z,27.61
2023-03-28T23:04:07.415Z,27.89
2023-03-28T23:06:12.541Z,27.79
2023-03-28T23:08:17.613Z,27.9
2023-03-28T23:10:22.690Z,27.84
2023-03-28T23:12:27.799Z,27.92
2023-03-28T23:14:32.858Z,27.99
2023-03-28T23:16:38.034Z,28.15
2023-03-28T23:18:43.234Z,28.18
2023-03-28T23:20:48.410Z,28.14
2023-03-28T23:22:53.478Z,28.27
2023-03-28T23:24:58.583Z,28.35
2023-03-28T23:27:03.739Z,28.47
2023-03-28T23:29:08.795Z,28.4
2023-03-28T23:31:14.049Z,28.58
2023-03-28T23:33:19.140Z,28.64
2023-03-28T23:35:24.199Z,28.55
2023-03-28T23:37:29.297Z,28.73
2023-03-28T23:39:34.327Z,28.66
2023-03-28T23:41:39.399Z,28.83
2023-03-28T23:43:44.439Z,28.77
2023-03-28T23:45:49.726Z,28.81
2023-03-28T23:47:55.024Z,28.85
2023-03-28T23:50:00.214Z,29.12
2023-03-28T23:52:05.257Z,29.19
2023-03-28T23:54:10.352Z,29.26
2023-03-28T23:56:15.346Z,29.36
2023-03-28T23:58:20.371Z,29.23
